createdAt,value
2023-01-12T00:04:14.939Z,32.48
2023-01-12T00:09:22.000Z,32.43
2023-01-12T00:14:29.241Z,32.37
2023-01-12T00:19:36.448Z,32.36
2023-01-12T00:24:43.640Z,32.33
2023-01-12T00:29:50.971Z,32.29
2023-01-12T00:34:58.127Z,32.34
2023-01-12T00:40:05.297Z,32.35
2023-01-12T00:45:12.566Z,32.33
2023-01-12T00:50:19.945Z,32.30
2023-01-12T00:55:26.958Z,32.27
2023-01-12T01:00:34.146Z,32.28
2023-01-12T01:05:41.356Z,32.33
2023-01-12T01:10:48.558Z,32.30
2023-01-12T01:15:55.763Z,32.30
2023-01-12T01:21:02.900Z,32.23
2023-01-12T01:26:10.073Z,32.16
2023-01-12T01:31:17.374Z,32.12
2023-01-12T01:36:24.453Z,32.09
2023-01-12T01:41:31.704Z,32.03
2023-01-12T01:46:38.949Z,32.05
2023-01-12T01:51:46.115Z,32.01
2023-01-12T01:56:53.369Z,31.90
2023-01-12T02:02:00.755Z,31.85
2023-01-12T02:07:07.917Z,31.86
2023-01-12T02:12:15.097Z,31.88
2023-01-12T02:17:22.392Z,31.82
2023-01-12T02:22:29.564Z,31.82
2023-01-12T02:27:36.804Z,31.78
2023-01-12T02:32:43.986Z,31.78
2023-01-12T02:37:51.199Z,31.76
2023-01-12T02:42:58.369Z,31.74
2023-01-12T02:48:05.671Z,31.73
2023-01-12T02:53:12.867Z,31.67
2023-01-12T02:58:20.047Z,31.62
2023-01-12T03:03:27.390Z,31.60
2023-01-12T03:08:34.455Z,31.56
2023-01-12T03:13:41.723Z,31.53
2023-01-12T03:18:49.048Z,31.48
2023-01-12T03:23:56.149Z,31.45
2023-01-12T03:29:03.307Z,31.44
2023-01-12T03:34:10.540Z,31.39
2023-01-12T03:39:17.739Z,31.42
2023-01-12T03:44:24.883Z,31.44
2023-01-12T03:49:32.144Z,31.49
2023-01-12T03:54:39.334Z,31.52
2023-01-12T03:59:46.552Z,31.62
2023-01-12T04:04:53.802Z,31.69
2023-01-12T04:10:00.951Z,31.71
2023-01-12T04:15:08.130Z,31.74
2023-01-12T04:20:15.340Z,31.69
2023-01-12T04:25:22.568Z,31.62
2023-01-12T04:30:29.756Z,31.59
2023-01-12T04:35:36.994Z,31.61
2023-01-12T04:40:44.173Z,31.55
2023-01-12T04:45:51.421Z,31.51
2023-01-12T04:50:58.623Z,31.53
2023-01-12T04:56:05.852Z,31.51
2023-01-12T05:01:13.237Z,31.50
2023-01-12T05:06:20.285Z,31.44
2023-01-12T05:11:27.449Z,31.36
2023-01-12T05:16:34.650Z,31.39
2023-01-12T05:21:41.836Z,31.32
2023-01-12T05:26:49.012Z,31.37
2023-01-12T05:31:56.216Z,31.31
2023-01-12T05:37:03.440Z,31.24
2023-01-12T05:42:10.895Z,31.07
2023-01-12T05:47:18.133Z,31.12
2023-01-12T05:52:25.328Z,31.16
2023-01-12T05:57:32.552Z,31.16
2023-01-12T06:02:39.842Z,31.20
2023-01-12T06:07:47.151Z,31.17
2023-01-12T06:12:54.261Z,31.29
2023-01-12T06:18:01.466Z,31.20
2023-01-12T06:23:08.708Z,31.24
2023-01-12T06:28:15.813Z,31.22
2023-01-12T06:33:23.021Z,31.22
2023-01-12T06:38:30.287Z,31.11
2023-01-12T06:43:37.402Z,31.20
2023-01-12T06:48:44.662Z,31.11
2023-01-12T06:53:51.943Z,31.11
2023-01-12T06:58:59.117Z,31.59
2023-01-12T07:04:06.377Z,31.33
2023-01-12T07:09:13.549Z,31.19
2023-01-12T07:14:20.809Z,31.28
2023-01-12T07:19:28.042Z,31.27
2023-01-12T07:24:35.246Z,31.20
2023-01-12T07:29:42.448Z,31.44
2023-01-12T07:34:49.651Z,31.24
2023-01-12T07:39:59.036Z,31.07
2023-01-12T07:45:04.057Z,31.08
2023-01-12T07:50:13.029Z,31.25
2023-01-12T07:55:18.606Z,31.29
2023-01-12T08:00:25.740Z,31.29
2023-01-12T08:05:33.053Z,31.40
2023-01-12T08:10:40.278Z,31.43
2023-01-12T08:15:47.571Z,31.53
2023-01-12T08:20:54.785Z,31.66
2023-01-12T08:26:02.042Z,31.76
2023-01-12T08:31:09.318Z,31.65
2023-01-12T08:36:16.507Z,31.76
2023-01-12T08:41:23.729Z,31.82
2023-01-12T08:46:31.016Z,31.96
2023-01-12T08:51:38.150Z,32.01
2023-01-12T08:56:45.394Z,31.99
2023-01-12T09:01:52.756Z,32.07
2023-01-12T09:07:00.294Z,32.15
2023-01-12T09:12:07.111Z,32.24
2023-01-12T09:17:14.348Z,32.17
2023-01-12T09:22:21.579Z,31.97
2023-01-12T09:27:28.818Z,32.43
2023-01-12T09:32:37.315Z,31.94
2023-01-12T09:37:43.174Z,31.91
2023-01-12T09:42:50.421Z,32.20
2023-01-12T09:47:57.625Z,31.92
2023-01-12T09:53:04.817Z,32.20
2023-01-12T09:58:12.046Z,32.23
2023-01-12T10:03:19.283Z,31.98
2023-01-12T10:08:26.391Z,32.04
2023-01-12T10:13:33.622Z,31.94
2023-01-12T10:18:41.838Z,32.09
2023-01-12T10:23:49.067Z,32.15
2023-01-12T10:28:56.324Z,32.12
2023-01-12T10:34:03.452Z,32.20
2023-01-12T10:39:10.653Z,32.27
2023-01-12T10:44:17.888Z,32.12
2023-01-12T10:49:25.115Z,32.05
2023-01-12T10:54:32.282Z,32.10
2023-01-12T10:59:39.514Z,32.18
2023-01-12T11:04:46.679Z,32.36
2023-01-12T11:09:53.923Z,32.46
2023-01-12T11:15:01.114Z,32.43
2023-01-12T11:20:08.303Z,32.30
2023-01-12T11:25:15.552Z,32.27
2023-01-12T11:30:22.733Z,32.46
2023-01-12T11:35:29.919Z,32.56
2023-01-12T11:40:37.117Z,32.64
2023-01-12T11:45:44.372Z,32.60
2023-01-12T11:50:51.493Z,32.56
2023-01-12T11:55:58.721Z,32.56
2023-01-12T12:01:05.987Z,32.58
2023-01-12T12:06:13.140Z,32.57
2023-01-12T12:11:20.351Z,32.59
2023-01-12T12:16:27.608Z,32.59
2023-01-12T12:21:34.732Z,32.70
2023-01-12T12:26:41.984Z,32.68
2023-01-12T12:31:49.191Z,32.78
2023-01-12T12:36:56.394Z,32.63
2023-01-12T12:42:03.585Z,32.73
2023-01-12T12:47:10.821Z,32.71
2023-01-12T12:52:17.997Z,32.72
2023-01-12T12:57:25.267Z,32.81
2023-01-12T13:02:32.547Z,32.97
2023-01-12T13:07:39.668Z,33.04
2023-01-12T13:12:46.875Z,33.13
2023-01-12T13:17:54.151Z,33.17
2023-01-12T13:23:01.311Z,33.16
2023-01-12T13:28:08.521Z,33.44
2023-01-12T13:33:15.823Z,33.20
2023-01-12T13:38:22.916Z,33.24
2023-01-12T13:43:30.152Z,33.46
2023-01-12T13:48:37.378Z,33.53
2023-01-12T13:53:44.537Z,33.39
2023-01-12T13:58:51.769Z,33.27
2023-01-12T14:03:59.004Z,33.42
2023-01-12T14:09:06.212Z,33.52
2023-01-12T14:14:13.478Z,33.61
2023-01-12T14:19:20.711Z,33.30
2023-01-12T14:24:27.917Z,33.41
2023-01-12T14:29:35.071Z,33.42
2023-01-12T14:34:42.312Z,33.50
2023-01-12T14:39:49.590Z,33.59
2023-01-12T14:44:57.703Z,33.81
2023-01-12T14:50:04.000Z,33.70
2023-01-12T14:55:14.268Z,33.66
2023-01-12T15:00:21.436Z,33.70
2023-01-12T15:05:28.704Z,33.72
2023-01-12T15:10:35.915Z,33.85
2023-01-12T15:15:43.100Z,33.96
2023-01-12T15:20:50.329Z,34.01
2023-01-12T15:25:57.492Z,34.07
2023-01-12T15:31:04.681Z,34.10
2023-01-12T15:36:11.944Z,34.00
2023-01-12T15:41:19.080Z,34.16
2023-01-12T15:46:26.273Z,34.23
2023-01-12T15:51:33.473Z,34.23
2023-01-12T15:56:40.627Z,34.10
2023-01-12T16:01:48.023Z,34.07
2023-01-12T16:06:55.096Z,34.08
2023-01-12T16:12:02.236Z,34.05
2023-01-12T16:17:09.429Z,34.00
2023-01-12T16:22:16.695Z,33.83
2023-01-12T16:27:23.858Z,33.90
2023-01-12T16:32:31.022Z,33.79
2023-01-12T16:37:38.288Z,33.77
2023-01-12T16:42:45.465Z,33.86
2023-01-12T16:47:52.684Z,33.93
2023-01-12T16:52:59.955Z,34.07
2023-01-12T16:58:07.109Z,34.19
2023-01-12T17:03:14.432Z,34.36
2023-01-12T17:08:21.502Z,34.55
2023-01-12T17:13:28.702Z,34.55
2023-01-12T17:18:35.866Z,34.50
2023-01-12T17:23:43.137Z,34.56
2023-01-12T17:28:50.312Z,34.31
2023-01-12T17:33:57.506Z,34.23
2023-01-12T17:39:04.748Z,34.25
2023-01-12T17:44:12.043Z,34.21
2023-01-12T17:49:19.355Z,34.23
2023-01-12T17:54:26.612Z,34.23
2023-01-12T17:59:33.792Z,34.25
2023-01-12T18:04:41.034Z,34.26
2023-01-12T18:09:48.314Z,34.32
2023-01-12T18:14:55.562Z,34.32
2023-01-12T18:20:02.785Z,34.48
2023-01-12T18:25:10.009Z,34.49
2023-01-12T18:30:17.229Z,34.52
2023-01-12T18:35:24.585Z,34.64
2023-01-12T18:40:32.390Z,34.75
2023-01-12T18:45:39.712Z,34.94
2023-01-12T18:50:47.208Z,35.05
2023-01-12T18:55:54.572Z,35.13
2023-01-12T19:01:01.899Z,35.47
2023-01-12T19:06:09.032Z,36.39
2023-01-12T19:11:16.592Z,36.76
2023-01-12T19:16:23.960Z,36.74
2023-01-12T19:21:31.871Z,36.19
2023-01-12T19:26:39.019Z,35.71
2023-01-12T19:31:46.486Z,35.77
2023-01-12T19:36:53.816Z,35.71
2023-01-12T19:42:01.844Z,35.83
2023-01-12T19:47:08.935Z,35.71
2023-01-12T19:52:16.219Z,35.22
2023-01-12T19:57:23.765Z,35.07
2023-01-12T20:02:31.270Z,35.46
2023-01-12T20:07:38.660Z,35.95
2023-01-12T20:12:46.010Z,35.94
2023-01-12T20:17:53.221Z,36.04
2023-01-12T20:23:00.695Z,35.55
2023-01-12T20:28:08.058Z,35.42
2023-01-12T20:33:15.503Z,35.42
2023-01-12T20:38:22.833Z,34.97
2023-01-12T20:43:30.369Z,34.83
2023-01-12T20:48:37.672Z,34.88
2023-01-12T20:53:44.841Z,35.16
2023-01-12T20:58:52.278Z,35.14
2023-01-12T21:03:59.435Z,35.16
2023-01-12T21:09:06.685Z,35.33
2023-01-12T21:14:13.978Z,34.85
2023-01-12T21:19:21.202Z,35.22
2023-01-12T21:24:28.382Z,35.19
2023-01-12T21:29:35.632Z,35.15
2023-01-12T21:34:42.847Z,34.98
2023-01-12T21:39:50.121Z,34.78
2023-01-12T21:44:57.337Z,34.72
2023-01-12T21:50:04.557Z,34.70
2023-01-12T21:55:11.735Z,34.64
2023-01-12T22:00:18.946Z,34.60
2023-01-12T22:05:26.063Z,34.47
2023-01-12T22:10:33.315Z,34.52
2023-01-12T22:15:40.505Z,34.30
2023-01-12T22:20:47.723Z,34.26
2023-01-12T22:25:54.900Z,34.17
2023-01-12T22:31:02.165Z,33.84
2023-01-12T22:36:09.865Z,33.73
2023-01-12T22:41:17.069Z,33.58
2023-01-12T22:46:24.284Z,33.53
2023-01-12T22:51:31.460Z,33.55
2023-01-12T22:56:38.669Z,33.48
2023-01-12T23:01:45.953Z,33.49
2023-01-12T23:06:53.228Z,33.54
2023-01-12T23:12:00.433Z,33.53
2023-01-12T23:17:07.682Z,33.47
2023-01-12T23:22:14.879Z,33.64
2023-01-12T23:27:22.149Z,33.62
2023-01-12T23:32:29.377Z,33.73
2023-01-12T23:37:36.585Z,33.83
2023-01-12T23:42:43.864Z,33.94
2023-01-12T23:47:51.135Z,33.93
2023-01-12T23:52:58.374Z,33.88
2023-01-12T23:58:05.634Z,33.71
